sensor_id;sensor_type;location;lat;lon;timestamp;temperature;humidity
14016;DHT22;7083;48.854;9.158;2024-01-16T00:02:25;-0.30;99.90
14016;DHT22;7083;48.854;9.158;2024-01-16T00:04:52;-0.30;99.90
14016;DHT22;7083;48.854;9.158;2024-01-16T00:07:18;-0.30;99.90
14016;DHT22;7083;48.854;9.158;2024-01-16T00:09:45;-0.30;99.90
14016;DHT22;7083;48.854;9.158;2024-01-16T00:12:12;-0.30;99.90
14016;DHT22;7083;48.854;9.158;2024-01-16T00:14:39;-0.40;99.90
14016;DHT22;7083;48.854;9.158;2024-01-16T00:17:05;-0.40;99.90
14016;DHT22;7083;48.854;9.158;2024-01-16T00:19:33;-0.40;99.90
14016;DHT22;7083;48.854;9.158;2024-01-16T00:22:00;-0.50;99.90
14016;DHT22;7083;48.854;9.158;2024-01-16T00:24:29;-0.50;99.90
14016;DHT22;7083;48.854;9.158;2024-01-16T00:26:56;-0.50;99.90
14016;DHT22;7083;48.854;9.158;2024-01-16T00:29:22;-0.60;99.90
14016;DHT22;7083;48.854;9.158;2024-01-16T00:31:49;-0.70;99.90
14016;DHT22;7083;48.854;9.158;2024-01-16T00:34:16;-0.80;99.90
14016;DHT22;7083;48.854;9.158;2024-01-16T00:36:44;-0.80;99.90
14016;DHT22;7083;48.854;9.158;2024-01-16T00:39:12;-0.80;99.90
14016;DHT22;7083;48.854;9.158;2024-01-16T00:41:38;-0.80;99.90
14016;DHT22;7083;48.854;9.158;2024-01-16T00:44:05;-0.90;99.90
14016;DHT22;7083;48.854;9.158;2024-01-16T00:46:33;-0.90;99.90
14016;DHT22;7083;48.854;9.158;2024-01-16T00:48:59;-0.90;99.90
14016;DHT22;7083;48.854;9.158;2024-01-16T00:51:26;-0.90;99.90
14016;DHT22;7083;48.854;9.158;2024-01-16T00:53:55;-0.90;99.90
14016;DHT22;7083;48.854;9.158;2024-01-16T00:56:21;-1.00;99.90
14016;DHT22;7083;48.854;9.158;2024-01-16T00:58:48;-0.90;99.90
14016;DHT22;7083;48.854;9.158;2024-01-16T01:01:15;-0.90;99.90
14016;DHT22;7083;48.854;9.158;2024-01-16T01:03:41;-0.90;99.90
14016;DHT22;7083;48.854;9.158;2024-01-16T01:06:08;-0.90;99.90
14016;DHT22;7083;48.854;9.158;2024-01-16T01:08:35;-0.90;99.90
14016;DHT22;7083;48.854;9.158;2024-01-16T01:11:03;-0.80;99.90
14016;DHT22;7083;48.854;9.158;2024-01-16T01:13:30;-0.80;99.90
14016;DHT22;7083;48.854;9.158;2024-01-16T01:15:56;-0.80;99.90
14016;DHT22;7083;48.854;9.158;2024-01-16T01:18:23;-0.70;99.90
14016;DHT22;7083;48.854;9.158;2024-01-16T01:20:50;-0.70;99.90
14016;DHT22;7083;48.854;9.158;2024-01-16T01:23:17;-0.70;99.90
14016;DHT22;7083;48.854;9.158;2024-01-16T01:25:43;-0.70;99.90
14016;DHT22;7083;48.854;9.158;2024-01-16T01:28:11;-0.90;99.90
14016;DHT22;7083;48.854;9.158;2024-01-16T01:30:38;-0.70;99.90
14016;DHT22;7083;48.854;9.158;2024-01-16T01:33:05;-0.80;99.90
14016;DHT22;7083;48.854;9.158;2024-01-16T01:35:32;-0.80;99.90
14016;DHT22;7083;48.854;9.158;2024-01-16T01:37:59;-0.80;99.90
14016;DHT22;7083;48.854;9.158;2024-01-16T01:40:25;-0.90;99.90
14016;DHT22;7083;48.854;9.158;2024-01-16T01:42:52;-0.90;99.90
14016;DHT22;7083;48.854;9.158;2024-01-16T01:45:20;-0.90;99.90
14016;DHT22;7083;48.854;9.158;2024-01-16T01:47:47;-1.10;99.90
14016;DHT22;7083;48.854;9.158;2024-01-16T01:50:14;-1.00;99.90
14016;DHT22;7083;48.854;9.158;2024-01-16T01:52:42;-1.00;99.90
14016;DHT22;7083;48.854;9.158;2024-01-16T01:55:11;-1.00;99.90
14016;DHT22;7083;48.854;9.158;2024-01-16T01:57:38;-1.00;99.90
14016;DHT22;7083;48.854;9.158;2024-01-16T02:00:06;-1.00;99.90
14016;DHT22;7083;48.854;9.158;2024-01-16T02:02:35;-0.90;99.90
14016;DHT22;7083;48.854;9.158;2024-01-16T02:05:02;-0.90;99.90
14016;DHT22;7083;48.854;9.158;2024-01-16T02:07:29;-0.80;99.90
14016;DHT22;7083;48.854;9.158;2024-01-16T02:09:57;-0.80;99.90
14016;DHT22;7083;48.854;9.158;2024-01-16T02:12:25;-0.80;99.90
14016;DHT22;7083;48.854;9.158;2024-01-16T02:14:52;-0.80;99.90
14016;DHT22;7083;48.854;9.158;2024-01-16T02:17:19;-0.80;99.90
14016;DHT22;7083;48.854;9.158;2024-01-16T02:19:47;-0.80;99.90
14016;DHT22;7083;48.854;9.158;2024-01-16T02:22:16;-0.90;99.90
14016;DHT22;7083;48.854;9.158;2024-01-16T02:24:47;-0.90;99.90
14016;DHT22;7083;48.854;9.158;2024-01-16T02:27:14;-1.00;99.90
14016;DHT22;7083;48.854;9.158;2024-01-16T02:29:41;-1.10;99.90
14016;DHT22;7083;48.854;9.158;2024-01-16T02:32:10;-1.10;99.90
14016;DHT22;7083;48.854;9.158;2024-01-16T02:34:36;-1.20;99.90
14016;DHT22;7083;48.854;9.158;2024-01-16T02:37:04;-1.30;99.90
14016;DHT22;7083;48.854;9.158;2024-01-16T02:39:30;-1.40;99.90
14016;DHT22;7083;48.854;9.158;2024-01-16T02:41:58;-1.40;99.90
14016;DHT22;7083;48.854;9.158;2024-01-16T02:44:25;-1.50;99.90
14016;DHT22;7083;48.854;9.158;2024-01-16T02:46:52;-1.60;99.90
14016;DHT22;7083;48.854;9.158;2024-01-16T02:49:18;-1.60;99.90
14016;DHT22;7083;48.854;9.158;2024-01-16T02:51:45;-1.70;99.90
14016;DHT22;7083;48.854;9.158;2024-01-16T02:54:12;-1.70;99.90
14016;DHT22;7083;48.854;9.158;2024-01-16T02:56:39;-1.70;99.90
14016;DHT22;7083;48.854;9.158;2024-01-16T02:59:08;-1.70;99.90
14016;DHT22;7083;48.854;9.158;2024-01-16T03:01:35;-1.80;99.90
14016;DHT22;7083;48.854;9.158;2024-01-16T03:04:02;-1.80;99.90
14016;DHT22;7083;48.854;9.158;2024-01-16T03:06:29;-1.90;99.90
14016;DHT22;7083;48.854;9.158;2024-01-16T03:08:56;-1.90;99.90
14016;DHT22;7083;48.854;9.158;2024-01-16T03:11:22;-2.00;99.90
14016;DHT22;7083;48.854;9.158;2024-01-16T03:13:49;-2.00;99.90
14016;DHT22;7083;48.854;9.158;2024-01-16T03:16:19;-2.00;99.90
14016;DHT22;7083;48.854;9.158;2024-01-16T03:18:46;-2.00;99.90
14016;DHT22;7083;48.854;9.158;2024-01-16T03:21:13;-2.00;99.90
14016;DHT22;7083;48.854;9.158;2024-01-16T03:23:40;-2.10;99.90
14016;DHT22;7083;48.854;9.158;2024-01-16T03:26:11;-2.20;99.90
14016;DHT22;7083;48.854;9.158;2024-01-16T03:28:38;-2.20;99.90
14016;DHT22;7083;48.854;9.158;2024-01-16T03:31:05;-2.30;99.90
14016;DHT22;7083;48.854;9.158;2024-01-16T03:33:33;-2.50;99.90
14016;DHT22;7083;48.854;9.158;2024-01-16T03:36:01;-2.50;99.90
14016;DHT22;7083;48.854;9.158;2024-01-16T03:38:28;-2.60;99.90
14016;DHT22;7083;48.854;9.158;2024-01-16T03:40:55;-2.70;99.90
14016;DHT22;7083;48.854;9.158;2024-01-16T03:43:22;-2.80;99.90
14016;DHT22;7083;48.854;9.158;2024-01-16T03:45:48;-2.80;99.90
14016;DHT22;7083;48.854;9.158;2024-01-16T03:48:15;-2.90;99.90
14016;DHT22;7083;48.854;9.158;2024-01-16T03:50:43;-2.80;99.90
14016;DHT22;7083;48.854;9.158;2024-01-16T03:53:10;-2.80;99.90
14016;DHT22;7083;48.854;9.158;2024-01-16T03:55:38;-2.80;99.90
14016;DHT22;7083;48.854;9.158;2024-01-16T03:58:04;-2.80;99.90
14016;DHT22;7083;48.854;9.158;2024-01-16T04:00:32;-2.70;99.90
14016;DHT22;7083;48.854;9.158;2024-01-16T04:02:59;-2.70;99.90
14016;DHT22;7083;48.854;9.158;2024-01-16T04:05:26;-2.80;99.90
14016;DHT22;7083;48.854;9.158;2024-01-16T04:07:54;-2.70;99.90
14016;DHT22;7083;48.854;9.158;2024-01-16T04:10:21;-2.80;99.90
14016;DHT22;7083;48.854;9.158;2024-01-16T04:12:48;-2.80;99.90
14016;DHT22;7083;48.854;9.158;2024-01-16T04:15:14;-2.80;99.90
14016;DHT22;7083;48.854;9.158;2024-01-16T04:17:41;-2.80;99.90
14016;DHT22;7083;48.854;9.158;2024-01-16T04:20:09;-2.90;99.90
14016;DHT22;7083;48.854;9.158;2024-01-16T04:22:36;-2.80;99.90
14016;DHT22;7083;48.854;9.158;2024-01-16T04:25:04;-2.90;99.90
14016;DHT22;7083;48.854;9.158;2024-01-16T04:27:31;-2.90;99.90
14016;DHT22;7083;48.854;9.158;2024-01-16T04:29:58;-2.90;99.90
14016;DHT22;7083;48.854;9.158;2024-01-16T04:32:25;-2.90;99.90
14016;DHT22;7083;48.854;9.158;2024-01-16T04:34:51;-2.90;99.90
14016;DHT22;7083;48.854;9.158;2024-01-16T04:37:18;-2.90;99.90
14016;DHT22;7083;48.854;9.158;2024-01-16T04:39:45;-2.90;99.90
14016;DHT22;7083;48.854;9.158;2024-01-16T04:42:13;-2.90;99.90
14016;DHT22;7083;48.854;9.158;2024-01-16T04:44:40;-2.90;99.90
14016;DHT22;7083;48.854;9.158;2024-01-16T04:47:06;-2.90;99.90
14016;DHT22;7083;48.854;9.158;2024-01-16T04:49:33;-2.90;99.90
14016;DHT22;7083;48.854;9.158;2024-01-16T04:52:00;-2.90;99.90
14016;DHT22;7083;48.854;9.158;2024-01-16T04:54:26;-2.90;99.90
14016;DHT22;7083;48.854;9.158;2024-01-16T04:56:53;-2.90;99.90
14016;DHT22;7083;48.854;9.158;2024-01-16T04:59:21;-2.90;99.90
14016;DHT22;7083;48.854;9.158;2024-01-16T05:01:48;-2.90;99.90
14016;DHT22;7083;48.854;9.158;2024-01-16T05:04:14;-2.90;99.90
14016;DHT22;7083;48.854;9.158;2024-01-16T05:06:41;-2.90;99.90
14016;DHT22;7083;48.854;9.158;2024-01-16T05:09:08;-3.00;99.90
14016;DHT22;7083;48.854;9.158;2024-01-16T05:11:36;-3.00;99.90
14016;DHT22;7083;48.854;9.158;2024-01-16T05:14:02;-3.00;99.90
14016;DHT22;7083;48.854;9.158;2024-01-16T05:16:30;-3.10;99.90
14016;DHT22;7083;48.854;9.158;2024-01-16T05:18:57;-3.00;99.90
14016;DHT22;7083;48.854;9.158;2024-01-16T05:21:24;-3.10;99.90
14016;DHT22;7083;48.854;9.158;2024-01-16T05:23:50;-3.10;99.90
14016;DHT22;7083;48.854;9.158;2024-01-16T05:26:17;-3.20;99.90
14016;DHT22;7083;48.854;9.158;2024-01-16T05:28:44;-3.10;99.90
14016;DHT22;7083;48.854;9.158;2024-01-16T05:31:10;-3.10;99.90
14016;DHT22;7083;48.854;9.158;2024-01-16T05:33:38;-3.20;99.90
14016;DHT22;7083;48.854;9.158;2024-01-16T05:36:06;-3.20;99.90
14016;DHT22;7083;48.854;9.158;2024-01-16T05:38:33;-3.20;99.90
14016;DHT22;7083;48.854;9.158;2024-01-16T05:41:00;-3.20;99.90
14016;DHT22;7083;48.854;9.158;2024-01-16T05:43:27;-3.20;99.90
14016;DHT22;7083;48.854;9.158;2024-01-16T05:45:55;-3.20;99.90
14016;DHT22;7083;48.854;9.158;2024-01-16T05:48:21;-3.20;99.90
14016;DHT22;7083;48.854;9.158;2024-01-16T05:50:50;-3.20;99.90
14016;DHT22;7083;48.854;9.158;2024-01-16T05:53:16;-3.20;99.90
14016;DHT22;7083;48.854;9.158;2024-01-16T05:55:43;-3.10;99.90
14016;DHT22;7083;48.854;9.158;2024-01-16T05:58:10;-3.10;99.90
14016;DHT22;7083;48.854;9.158;2024-01-16T06:00:36;-3.00;99.90
14016;DHT22;7083;48.854;9.158;2024-01-16T06:03:11;-3.00;99.90
14016;DHT22;7083;48.854;9.158;2024-01-16T06:05:38;-2.90;99.90
14016;DHT22;7083;48.854;9.158;2024-01-16T06:08:06;-2.90;99.90
14016;DHT22;7083;48.854;9.158;2024-01-16T06:10:33;-3.00;99.90
14016;DHT22;7083;48.854;9.158;2024-01-16T06:13:00;-2.90;99.90
14016;DHT22;7083;48.854;9.158;2024-01-16T06:15:26;-2.90;99.90
14016;DHT22;7083;48.854;9.158;2024-01-16T06:17:53;-2.90;99.90
14016;DHT22;7083;48.854;9.158;2024-01-16T06:20:20;-2.90;99.90
14016;DHT22;7083;48.854;9.158;2024-01-16T06:22:49;-3.00;99.90
14016;DHT22;7083;48.854;9.158;2024-01-16T06:25:17;-3.00;99.90
14016;DHT22;7083;48.854;9.158;2024-01-16T06:27:44;-3.00;99.90
14016;DHT22;7083;48.854;9.158;2024-01-16T06:30:11;-3.10;99.90
14016;DHT22;7083;48.854;9.158;2024-01-16T06:32:38;-3.10;99.90
14016;DHT22;7083;48.854;9.158;2024-01-16T06:35:05;-3.10;99.90
14016;DHT22;7083;48.854;9.158;2024-01-16T06:37:33;-3.20;99.90
14016;DHT22;7083;48.854;9.158;2024-01-16T06:39:59;-3.20;99.90
14016;DHT22;7083;48.854;9.158;2024-01-16T06:42:27;-3.20;99.90
14016;DHT22;7083;48.854;9.158;2024-01-16T06:44:54;-3.20;99.90
14016;DHT22;7083;48.854;9.158;2024-01-16T06:47:21;-3.20;99.90
14016;DHT22;7083;48.854;9.158;2024-01-16T06:49:49;-3.20;99.90
14016;DHT22;7083;48.854;9.158;2024-01-16T06:52:16;-3.20;99.90
14016;DHT22;7083;48.854;9.158;2024-01-16T06:54:42;-3.20;99.90
14016;DHT22;7083;48.854;9.158;2024-01-16T06:57:09;-3.20;99.90
14016;DHT22;7083;48.854;9.158;2024-01-16T06:59:37;-3.10;99.90
14016;DHT22;7083;48.854;9.158;2024-01-16T07:02:04;-3.10;99.90
14016;DHT22;7083;48.854;9.158;2024-01-16T07:04:31;-3.10;99.90
14016;DHT22;7083;48.854;9.158;2024-01-16T07:06:58;-3.10;99.90
14016;DHT22;7083;48.854;9.158;2024-01-16T07:09:25;-3.10;99.90
14016;DHT22;7083;48.854;9.158;2024-01-16T07:11:52;-3.10;99.90
14016;DHT22;7083;48.854;9.158;2024-01-16T07:14:19;-3.00;99.90
14016;DHT22;7083;48.854;9.158;2024-01-16T07:16:47;-2.90;99.90
14016;DHT22;7083;48.854;9.158;2024-01-16T07:19:15;-2.90;99.90
14016;DHT22;7083;48.854;9.158;2024-01-16T07:21:42;-2.90;99.90
14016;DHT22;7083;48.854;9.158;2024-01-16T07:24:10;-2.90;99.90
14016;DHT22;7083;48.854;9.158;2024-01-16T07:26:37;-2.90;99.90
14016;DHT22;7083;48.854;9.158;2024-01-16T07:29:04;-2.70;99.90
14016;DHT22;7083;48.854;9.158;2024-01-16T07:31:31;-2.80;99.90
14016;DHT22;7083;48.854;9.158;2024-01-16T07:33:59;-2.80;99.90
14016;DHT22;7083;48.854;9.158;2024-01-16T07:36:26;-2.80;99.90
14016;DHT22;7083;48.854;9.158;2024-01-16T07:38:52;-2.80;99.90
14016;DHT22;7083;48.854;9.158;2024-01-16T07:41:19;-2.50;99.90
14016;DHT22;7083;48.854;9.158;2024-01-16T07:43:46;-2.70;99.90
14016;DHT22;7083;48.854;9.158;2024-01-16T07:46:12;-2.70;99.90
14016;DHT22;7083;48.854;9.158;2024-01-16T07:48:39;-2.10;99.90
14016;DHT22;7083;48.854;9.158;2024-01-16T07:51:07;-2.60;99.90
14016;DHT22;7083;48.854;9.158;2024-01-16T07:53:34;-2.60;99.90
14016;DHT22;7083;48.854;9.158;2024-01-16T07:56:01;-2.00;99.90
14016;DHT22;7083;48.854;9.158;2024-01-16T07:58:27;-2.50;99.90
14016;DHT22;7083;48.854;9.158;2024-01-16T08:00:54;-2.40;99.90
14016;DHT22;7083;48.854;9.158;2024-01-16T08:03:21;-1.70;99.90
14016;DHT22;7083;48.854;9.158;2024-01-16T08:05:48;-2.30;99.90
14016;DHT22;7083;48.854;9.158;2024-01-16T08:08:16;-1.60;99.90
14016;DHT22;7083;48.854;9.158;2024-01-16T08:10:42;-1.30;99.90
14016;DHT22;7083;48.854;9.158;2024-01-16T08:13:09;-2.10;99.90
14016;DHT22;7083;48.854;9.158;2024-01-16T08:15:36;-1.40;99.90
14016;DHT22;7083;48.854;9.158;2024-01-16T08:18:03;-1.90;99.90
14016;DHT22;7083;48.854;9.158;2024-01-16T08:20:30;-1.90;99.90
14016;DHT22;7083;48.854;9.158;2024-01-16T08:22:57;-1.70;99.90
14016;DHT22;7083;48.854;9.158;2024-01-16T08:25:25;-1.70;99.90
14016;DHT22;7083;48.854;9.158;2024-01-16T08:27:52;-1.60;99.90
14016;DHT22;7083;48.854;9.158;2024-01-16T08:30:19;-0.70;99.90
14016;DHT22;7083;48.854;9.158;2024-01-16T08:32:46;-1.40;99.90
14016;DHT22;7083;48.854;9.158;2024-01-16T08:35:13;-1.40;99.90
14016;DHT22;7083;48.854;9.158;2024-01-16T08:37:39;-1.30;99.90
14016;DHT22;7083;48.854;9.158;2024-01-16T08:40:07;-1.20;99.90
14016;DHT22;7083;48.854;9.158;2024-01-16T08:42:35;-1.20;99.90
14016;DHT22;7083;48.854;9.158;2024-01-16T08:45:02;-1.10;99.90
14016;DHT22;7083;48.854;9.158;2024-01-16T08:47:30;-1.10;99.90
14016;DHT22;7083;48.854;9.158;2024-01-16T08:49:57;-1.00;99.90
14016;DHT22;7083;48.854;9.158;2024-01-16T08:52:24;-1.00;99.90
14016;DHT22;7083;48.854;9.158;2024-01-16T08:54:51;-0.90;99.90
14016;DHT22;7083;48.854;9.158;2024-01-16T08:57:17;-0.80;99.90
14016;DHT22;7083;48.854;9.158;2024-01-16T08:59:45;-0.70;99.90
14016;DHT22;7083;48.854;9.158;2024-01-16T09:02:12;-0.60;99.60
14016;DHT22;7083;48.854;9.158;2024-01-16T09:04:39;-0.60;99.30
14016;DHT22;7083;48.854;9.158;2024-01-16T09:07:06;-0.50;98.50
14016;DHT22;7083;48.854;9.158;2024-01-16T09:09:33;-0.40;98.00
14016;DHT22;7083;48.854;9.158;2024-01-16T09:12:00;-0.40;97.30
14016;DHT22;7083;48.854;9.158;2024-01-16T09:14:27;-0.30;96.70
14016;DHT22;7083;48.854;9.158;2024-01-16T09:16:55;-0.20;96.50
14016;DHT22;7083;48.854;9.158;2024-01-16T09:19:21;-0.10;95.70
14016;DHT22;7083;48.854;9.158;2024-01-16T09:21:48;-0.10;94.90
14016;DHT22;7083;48.854;9.158;2024-01-16T09:24:15;-0.10;94.70
14016;DHT22;7083;48.854;9.158;2024-01-16T09:26:42;-0.10;95.10
14016;DHT22;7083;48.854;9.158;2024-01-16T09:29:09;0.00;94.70
14016;DHT22;7083;48.854;9.158;2024-01-16T09:31:36;0.00;94.40
14016;DHT22;7083;48.854;9.158;2024-01-16T09:34:04;0.00;94.50
14016;DHT22;7083;48.854;9.158;2024-01-16T09:36:31;0.10;94.70
14016;DHT22;7083;48.854;9.158;2024-01-16T09:38:57;0.20;94.20
14016;DHT22;7083;48.854;9.158;2024-01-16T09:41:24;0.40;94.00
14016;DHT22;7083;48.854;9.158;2024-01-16T09:43:51;0.40;93.50
14016;DHT22;7083;48.854;9.158;2024-01-16T09:46:20;0.50;93.30
14016;DHT22;7083;48.854;9.158;2024-01-16T09:48:51;0.50;92.80
14016;DHT22;7083;48.854;9.158;2024-01-16T09:51:21;0.60;93.10
14016;DHT22;7083;48.854;9.158;2024-01-16T09:53:48;0.70;93.30
14016;DHT22;7083;48.854;9.158;2024-01-16T09:56:16;0.90;92.50
14016;DHT22;7083;48.854;9.158;2024-01-16T09:58:43;0.90;92.10
14016;DHT22;7083;48.854;9.158;2024-01-16T10:01:11;1.00;91.80
14016;DHT22;7083;48.854;9.158;2024-01-16T10:03:38;1.10;91.60
14016;DHT22;7083;48.854;9.158;2024-01-16T10:06:07;1.20;91.20
14016;DHT22;7083;48.854;9.158;2024-01-16T10:08:35;1.30;91.50
14016;DHT22;7083;48.854;9.158;2024-01-16T10:11:03;1.40;90.70
14016;DHT22;7083;48.854;9.158;2024-01-16T10:13:31;1.50;90.80
14016;DHT22;7083;48.854;9.158;2024-01-16T10:15:59;1.50;90.20
14016;DHT22;7083;48.854;9.158;2024-01-16T10:18:28;1.60;90.70
14016;DHT22;7083;48.854;9.158;2024-01-16T10:20:56;1.60;91.10
14016;DHT22;7083;48.854;9.158;2024-01-16T10:23:24;1.70;90.60
14016;DHT22;7083;48.854;9.158;2024-01-16T10:26:08;1.70;91.10
14016;DHT22;7083;48.854;9.158;2024-01-16T10:28:36;1.80;90.40
14016;DHT22;7083;48.854;9.158;2024-01-16T10:31:03;1.60;90.10
14016;DHT22;7083;48.854;9.158;2024-01-16T10:33:30;1.60;90.40
14016;DHT22;7083;48.854;9.158;2024-01-16T10:36:11;1.50;90.50
14016;DHT22;7083;48.854;9.158;2024-01-16T10:38:38;1.50;90.40
14016;DHT22;7083;48.854;9.158;2024-01-16T10:41:08;1.50;89.60
14016;DHT22;7083;48.854;9.158;2024-01-16T10:43:34;1.50;89.00
14016;DHT22;7083;48.854;9.158;2024-01-16T10:46:11;1.40;88.60
14016;DHT22;7083;48.854;9.158;2024-01-16T10:48:39;1.60;89.50
14016;DHT22;7083;48.854;9.158;2024-01-16T10:51:06;1.80;90.30
14016;DHT22;7083;48.854;9.158;2024-01-16T10:53:34;2.00;89.30
14016;DHT22;7083;48.854;9.158;2024-01-16T10:56:01;2.30;89.90
14016;DHT22;7083;48.854;9.158;2024-01-16T10:58:31;2.50;89.30
14016;DHT22;7083;48.854;9.158;2024-01-16T11:01:02;2.70;88.60
14016;DHT22;7083;48.854;9.158;2024-01-16T11:03:35;2.80;89.40
14016;DHT22;7083;48.854;9.158;2024-01-16T11:06:06;2.90;87.80
14016;DHT22;7083;48.854;9.158;2024-01-16T11:08:35;2.90;85.90
14016;DHT22;7083;48.854;9.158;2024-01-16T11:11:04;2.80;87.30
14016;DHT22;7083;48.854;9.158;2024-01-16T11:13:33;2.70;87.90
14016;DHT22;7083;48.854;9.158;2024-01-16T11:16:01;2.50;86.70
14016;DHT22;7083;48.854;9.158;2024-01-16T11:18:30;2.50;87.50
14016;DHT22;7083;48.854;9.158;2024-01-16T11:20:58;2.40;87.90
14016;DHT22;7083;48.854;9.158;2024-01-16T11:23:25;2.30;87.40
14016;DHT22;7083;48.854;9.158;2024-01-16T11:25:51;2.10;87.80
14016;DHT22;7083;48.854;9.158;2024-01-16T11:28:18;2.00;89.10
14016;DHT22;7083;48.854;9.158;2024-01-16T11:30:46;1.90;89.20
14016;DHT22;7083;48.854;9.158;2024-01-16T11:33:41;1.70;87.90
14016;DHT22;7083;48.854;9.158;2024-01-16T11:39:09;1.70;90.20
14016;DHT22;7083;48.854;9.158;2024-01-16T11:41:48;1.70;90.40
14016;DHT22;7083;48.854;9.158;2024-01-16T11:44:41;1.70;89.90
14016;DHT22;7083;48.854;9.158;2024-01-16T11:47:15;1.80;90.20
14016;DHT22;7083;48.854;9.158;2024-01-16T11:49:42;2.00;90.10
14016;DHT22;7083;48.854;9.158;2024-01-16T11:52:08;2.20;89.30
14016;DHT22;7083;48.854;9.158;2024-01-16T11:54:36;2.30;89.20
14016;DHT22;7083;48.854;9.158;2024-01-16T11:57:45;2.50;89.30
14016;DHT22;7083;48.854;9.158;2024-01-16T12:00:19;2.60;88.70
14016;DHT22;7083;48.854;9.158;2024-01-16T12:02:52;2.70;87.60
14016;DHT22;7083;48.854;9.158;2024-01-16T12:05:20;2.90;86.20
14016;DHT22;7083;48.854;9.158;2024-01-16T12:07:47;2.90;86.40
14016;DHT22;7083;48.854;9.158;2024-01-16T12:10:16;3.00;86.10
14016;DHT22;7083;48.854;9.158;2024-01-16T12:12:43;3.00;85.60
14016;DHT22;7083;48.854;9.158;2024-01-16T12:15:14;3.00;85.50
14016;DHT22;7083;48.854;9.158;2024-01-16T12:17:53;3.10;85.00
14016;DHT22;7083;48.854;9.158;2024-01-16T12:20:21;3.10;83.50
14016;DHT22;7083;48.854;9.158;2024-01-16T12:22:56;3.10;83.20
14016;DHT22;7083;48.854;9.158;2024-01-16T12:25:24;3.20;82.70
14016;DHT22;7083;48.854;9.158;2024-01-16T12:27:57;3.30;84.20
14016;DHT22;7083;48.854;9.158;2024-01-16T12:30:25;3.30;84.00
14016;DHT22;7083;48.854;9.158;2024-01-16T12:33:02;3.30;82.30
14016;DHT22;7083;48.854;9.158;2024-01-16T12:35:29;3.30;82.00
14016;DHT22;7083;48.854;9.158;2024-01-16T12:38:00;3.30;82.20
14016;DHT22;7083;48.854;9.158;2024-01-16T12:40:27;3.30;82.30
14016;DHT22;7083;48.854;9.158;2024-01-16T12:42:54;3.40;82.00
14016;DHT22;7083;48.854;9.158;2024-01-16T12:45:21;3.50;82.00
14016;DHT22;7083;48.854;9.158;2024-01-16T12:47:51;3.60;82.50
14016;DHT22;7083;48.854;9.158;2024-01-16T12:50:21;3.80;81.50
14016;DHT22;7083;48.854;9.158;2024-01-16T12:52:49;4.00;81.90
14016;DHT22;7083;48.854;9.158;2024-01-16T12:55:16;4.10;81.90
14016;DHT22;7083;48.854;9.158;2024-01-16T12:57:43;4.20;80.00
14016;DHT22;7083;48.854;9.158;2024-01-16T13:00:23;4.20;77.80
14016;DHT22;7083;48.854;9.158;2024-01-16T13:02:51;4.20;77.80
14016;DHT22;7083;48.854;9.158;2024-01-16T13:05:18;4.30;79.00
14016;DHT22;7083;48.854;9.158;2024-01-16T13:07:59;4.30;77.80
14016;DHT22;7083;48.854;9.158;2024-01-16T13:10:28;4.20;78.20
14016;DHT22;7083;48.854;9.158;2024-01-16T13:13:11;4.10;79.40
14016;DHT22;7083;48.854;9.158;2024-01-16T13:15:37;4.20;80.00
14016;DHT22;7083;48.854;9.158;2024-01-16T13:18:04;4.20;79.50
14016;DHT22;7083;48.854;9.158;2024-01-16T13:20:31;4.30;79.30
14016;DHT22;7083;48.854;9.158;2024-01-16T13:23:00;4.40;78.70
14016;DHT22;7083;48.854;9.158;2024-01-16T13:25:26;4.50;77.40
14016;DHT22;7083;48.854;9.158;2024-01-16T13:27:53;4.60;76.40
14016;DHT22;7083;48.854;9.158;2024-01-16T13:30:20;4.70;75.60
14016;DHT22;7083;48.854;9.158;2024-01-16T13:32:46;4.60;74.70
14016;DHT22;7083;48.854;9.158;2024-01-16T13:35:13;4.60;75.20
14016;DHT22;7083;48.854;9.158;2024-01-16T13:37:40;4.60;74.50
14016;DHT22;7083;48.854;9.158;2024-01-16T13:40:08;4.50;75.00
14016;DHT22;7083;48.854;9.158;2024-01-16T13:42:38;4.50;75.20
14016;DHT22;7083;48.854;9.158;2024-01-16T13:45:05;4.40;74.60
14016;DHT22;7083;48.854;9.158;2024-01-16T13:47:33;4.30;73.10
14016;DHT22;7083;48.854;9.158;2024-01-16T13:50:05;4.20;74.20
14016;DHT22;7083;48.854;9.158;2024-01-16T13:52:32;4.10;74.60
14016;DHT22;7083;48.854;9.158;2024-01-16T13:54:59;4.00;75.00
14016;DHT22;7083;48.854;9.158;2024-01-16T13:57:29;3.90;75.60
14016;DHT22;7083;48.854;9.158;2024-01-16T13:59:56;3.70;75.00
14016;DHT22;7083;48.854;9.158;2024-01-16T14:02:22;3.60;75.10
14016;DHT22;7083;48.854;9.158;2024-01-16T14:04:50;3.50;75.30
14016;DHT22;7083;48.854;9.158;2024-01-16T14:07:17;3.30;74.70
14016;DHT22;7083;48.854;9.158;2024-01-16T14:09:43;3.20;75.60
14016;DHT22;7083;48.854;9.158;2024-01-16T14:12:10;3.10;75.70
14016;DHT22;7083;48.854;9.158;2024-01-16T14:14:40;3.10;76.00
14016;DHT22;7083;48.854;9.158;2024-01-16T14:17:07;3.00;76.40
14016;DHT22;7083;48.854;9.158;2024-01-16T14:19:34;2.80;77.70
14016;DHT22;7083;48.854;9.158;2024-01-16T14:22:01;2.70;78.30
14016;DHT22;7083;48.854;9.158;2024-01-16T14:24:28;2.60;78.80
14016;DHT22;7083;48.854;9.158;2024-01-16T14:26:55;2.40;79.50
14016;DHT22;7083;48.854;9.158;2024-01-16T14:29:22;2.30;79.80
14016;DHT22;7083;48.854;9.158;2024-01-16T14:31:50;2.20;80.20
14016;DHT22;7083;48.854;9.158;2024-01-16T14:34:20;2.00;80.90
14016;DHT22;7083;48.854;9.158;2024-01-16T14:36:49;2.00;82.40
14016;DHT22;7083;48.854;9.158;2024-01-16T14:39:16;2.10;82.90
14016;DHT22;7083;48.854;9.158;2024-01-16T14:41:50;2.30;83.20
14016;DHT22;7083;48.854;9.158;2024-01-16T14:44:17;2.50;83.90
14016;DHT22;7083;48.854;9.158;2024-01-16T14:46:44;2.60;82.60
14016;DHT22;7083;48.854;9.158;2024-01-16T14:49:12;2.70;81.40
14016;DHT22;7083;48.854;9.158;2024-01-16T14:51:38;2.50;79.70
14016;DHT22;7083;48.854;9.158;2024-01-16T14:54:05;2.30;79.90
14016;DHT22;7083;48.854;9.158;2024-01-16T14:56:32;2.10;80.30
14016;DHT22;7083;48.854;9.158;2024-01-16T14:58:59;1.80;80.20
14016;DHT22;7083;48.854;9.158;2024-01-16T15:01:25;1.70;80.60
14016;DHT22;7083;48.854;9.158;2024-01-16T15:03:52;1.40;80.70
14016;DHT22;7083;48.854;9.158;2024-01-16T15:06:21;1.30;81.10
14016;DHT22;7083;48.854;9.158;2024-01-16T15:08:48;1.10;81.40
14016;DHT22;7083;48.854;9.158;2024-01-16T15:11:14;1.00;82.00
14016;DHT22;7083;48.854;9.158;2024-01-16T15:13:42;0.80;82.40
14016;DHT22;7083;48.854;9.158;2024-01-16T15:16:10;0.60;83.00
14016;DHT22;7083;48.854;9.158;2024-01-16T15:18:37;0.50;83.20
14016;DHT22;7083;48.854;9.158;2024-01-16T15:21:03;0.40;83.60
14016;DHT22;7083;48.854;9.158;2024-01-16T15:23:32;0.30;84.10
14016;DHT22;7083;48.854;9.158;2024-01-16T15:25:58;0.20;84.50
14016;DHT22;7083;48.854;9.158;2024-01-16T15:28:28;0.10;85.00
14016;DHT22;7083;48.854;9.158;2024-01-16T15:30:55;-0.10;85.60
14016;DHT22;7083;48.854;9.158;2024-01-16T15:33:22;-0.20;86.10
14016;DHT22;7083;48.854;9.158;2024-01-16T15:35:48;-0.30;86.60
14016;DHT22;7083;48.854;9.158;2024-01-16T15:38:15;-0.50;86.80
14016;DHT22;7083;48.854;9.158;2024-01-16T15:40:43;-0.60;87.00
14016;DHT22;7083;48.854;9.158;2024-01-16T15:43:10;-0.80;87.10
14016;DHT22;7083;48.854;9.158;2024-01-16T15:45:36;-0.90;87.40
14016;DHT22;7083;48.854;9.158;2024-01-16T15:48:04;-1.00;87.90
14016;DHT22;7083;48.854;9.158;2024-01-16T15:50:30;-1.10;88.30
14016;DHT22;7083;48.854;9.158;2024-01-16T15:52:57;-1.20;88.40
14016;DHT22;7083;48.854;9.158;2024-01-16T15:55:24;-1.30;88.60
14016;DHT22;7083;48.854;9.158;2024-01-16T15:57:52;-1.40;88.90
14016;DHT22;7083;48.854;9.158;2024-01-16T16:00:20;-1.60;89.40